createdAt,value
2023-04-25T00:00:15.351Z,86.22
2023-04-25T00:02:42.714Z,85.94
2023-04-25T00:05:10.261Z,87.16
2023-04-25T00:07:36.892Z,86.95
2023-04-25T00:10:04.617Z,86.78
2023-04-25T00:12:31.197Z,85.40
2023-04-25T00:15:00.984Z,85.60
2023-04-25T00:17:27.910Z,86.07
2023-04-25T00:19:54.553Z,86.92
2023-04-25T00:22:22.117Z,86.35
2023-04-25T00:24:48.826Z,86.85
2023-04-25T00:27:15.408Z,86.10
2023-04-25T00:29:41.922Z,84.80
2023-04-25T00:32:08.550Z,86.72
2023-04-25T00:34:36.150Z,86.48
2023-04-25T00:37:03.264Z,85.05
2023-04-25T00:39:29.878Z,85.17
2023-04-25T00:41:56.592Z,84.50
2023-04-25T00:44:23.401Z,83.87
2023-04-25T00:46:52.507Z,83.88
2023-04-25T00:49:19.023Z,84.58
2023-04-25T00:51:45.805Z,84.36
2023-04-25T00:54:13.652Z,85.36
2023-04-25T00:56:40.718Z,84.92
2023-04-25T00:59:07.554Z,86.90
2023-04-25T01:01:34.459Z,86.44
2023-04-25T01:04:02.088Z,87.24
2023-04-25T01:06:28.673Z,88.33
2023-04-25T01:08:55.455Z,88.76
2023-04-25T01:11:21.988Z,88.18
2023-04-25T01:13:48.914Z,89.10
2023-04-25T01:16:16.143Z,89.25
2023-04-25T01:18:43.597Z,90.06
2023-04-25T01:21:11.826Z,91.00
2023-04-25T01:23:41.001Z,91.35
2023-04-25T01:26:09.742Z,91.26
2023-04-25T01:28:36.754Z,90.96
2023-04-25T01:31:03.863Z,92.70
2023-04-25T01:33:30.721Z,92.16
2023-04-25T01:35:57.181Z,92.52
2023-04-25T01:38:23.806Z,92.63
2023-04-25T01:40:52.198Z,92.57
2023-04-25T01:43:19.002Z,91.71
2023-04-25T01:45:45.742Z,90.79
2023-04-25T01:48:14.124Z,91.55
2023-04-25T01:50:41.592Z,90.88
2023-04-25T01:53:10.429Z,90.18
2023-04-25T01:55:36.931Z,90.43
2023-04-25T01:58:04.746Z,90.53
2023-04-25T02:00:31.303Z,90.54
2023-04-25T02:03:00.708Z,91.74
2023-04-25T02:05:27.273Z,92.08
2023-04-25T02:07:53.789Z,92.55
2023-04-25T02:10:20.498Z,92.63
2023-04-25T02:12:46.926Z,93.26
2023-04-25T02:15:13.365Z,93.09
2023-04-25T02:17:40.221Z,92.56
2023-04-25T02:20:07.288Z,93.62
2023-04-25T02:22:35.030Z,94.55
2023-04-25T02:25:01.526Z,93.06
2023-04-25T02:27:28.045Z,93.65
2023-04-25T02:29:54.530Z,92.46
2023-04-25T02:32:21.486Z,92.22
2023-04-25T02:34:49.010Z,91.02
2023-04-25T02:37:15.639Z,91.68
2023-04-25T02:39:42.060Z,91.61
2023-04-25T02:42:08.578Z,91.45
2023-04-25T02:44:35.081Z,92.31
2023-04-25T02:47:01.617Z,91.04
2023-04-25T02:49:28.210Z,93.11
2023-04-25T02:51:54.683Z,95.64
2023-04-25T02:54:21.163Z,95.08
2023-04-25T02:56:47.653Z,94.69
2023-04-25T02:59:14.143Z,96.14
2023-04-25T03:01:40.580Z,95.06
2023-04-25T03:04:07.897Z,96.04
2023-04-25T03:06:34.347Z,95.75
2023-04-25T03:09:00.844Z,96.50
2023-04-25T03:11:28.289Z,96.28
2023-04-25T03:13:54.784Z,95.09
2023-04-25T03:16:21.401Z,96.59
2023-04-25T03:18:47.950Z,96.74
2023-04-25T03:21:14.435Z,96.18
2023-04-25T03:23:41.032Z,95.23
2023-04-25T03:26:07.548Z,95.13
2023-04-25T03:28:33.997Z,95.40
2023-04-25T03:31:00.529Z,94.62
2023-04-25T03:33:27.052Z,96.26
2023-04-25T03:35:53.989Z,93.96
2023-04-25T03:38:20.542Z,94.84
2023-04-25T03:40:47.098Z,95.12
2023-04-25T03:43:13.558Z,95.17
2023-04-25T03:45:40.478Z,94.43
2023-04-25T03:48:07.039Z,93.40
2023-04-25T03:50:33.661Z,92.11
2023-04-25T03:53:00.217Z,91.51
2023-04-25T03:55:26.693Z,91.64
2023-04-25T03:57:53.254Z,92.91
2023-04-25T04:00:19.730Z,92.11
2023-04-25T04:02:46.630Z,94.19
2023-04-25T04:05:13.883Z,92.71
2023-04-25T04:07:41.215Z,92.03
2023-04-25T04:10:08.631Z,94.14
2023-04-25T04:12:35.188Z,92.00
2023-04-25T04:15:04.534Z,93.67
2023-04-25T04:17:31.354Z,92.88
2023-04-25T04:19:57.947Z,93.52
2023-04-25T04:22:25.037Z,92.76
2023-04-25T04:24:51.908Z,93.13
2023-04-25T04:27:23.737Z,93.15
2023-04-25T04:29:52.509Z,93.31
2023-04-25T04:32:19.179Z,92.73
2023-04-25T04:34:45.822Z,91.00
2023-04-25T04:37:14.425Z,91.84
2023-04-25T04:39:41.030Z,93.26
2023-04-25T04:42:08.000Z,93.02
2023-04-25T04:44:35.410Z,93.33
2023-04-25T04:47:03.015Z,90.70
2023-04-25T04:49:29.668Z,91.98
2023-04-25T04:51:58.411Z,92.86
2023-04-25T04:54:26.574Z,95.76
2023-04-25T04:56:53.540Z,98.54
2023-04-25T04:59:20.057Z,100.00
2023-04-25T05:01:47.809Z,100.00
2023-04-25T05:04:14.414Z,100.00
2023-04-25T05:06:41.488Z,100.00
2023-04-25T05:09:08.035Z,100.00
2023-04-25T05:11:34.556Z,100.00
2023-04-25T05:14:01.102Z,100.00
2023-04-25T05:16:29.091Z,100.00
2023-04-25T05:18:55.726Z,100.00
2023-04-25T05:21:22.481Z,100.00
2023-04-25T05:23:49.051Z,100.00
2023-04-25T05:26:15.832Z,100.00
2023-04-25T05:28:43.208Z,100.00
2023-04-25T05:31:12.780Z,100.00
2023-04-25T05:33:39.355Z,100.00
2023-04-25T05:36:06.391Z,100.00
2023-04-25T05:38:34.812Z,99.52
2023-04-25T05:41:01.750Z,99.97
2023-04-25T05:43:28.316Z,100.00
2023-04-25T05:45:54.983Z,100.00
2023-04-25T05:48:21.511Z,100.00
2023-04-25T05:50:48.130Z,100.00
2023-04-25T05:53:14.602Z,99.13
2023-04-25T05:55:41.046Z,96.83
2023-04-25T05:58:08.132Z,96.53
2023-04-25T06:00:34.813Z,98.63
2023-04-25T06:03:02.173Z,99.50
2023-04-25T06:05:28.980Z,100.00
2023-04-25T06:07:55.600Z,99.18
2023-04-25T06:10:23.551Z,99.67
2023-04-25T06:12:50.442Z,98.63
2023-04-25T06:15:27.991Z,97.95
2023-04-25T06:17:55.528Z,96.86
2023-04-25T06:20:25.613Z,97.45
2023-04-25T06:22:55.403Z,97.73
2023-04-25T06:25:22.178Z,97.29
2023-04-25T06:27:48.805Z,96.71
2023-04-25T06:30:16.230Z,98.50
2023-04-25T06:32:42.897Z,98.36
2023-04-25T06:35:09.876Z,97.35
2023-04-25T06:37:36.404Z,99.20
2023-04-25T06:40:03.505Z,99.51
2023-04-25T06:42:30.025Z,98.82
2023-04-25T06:44:56.861Z,100.00
2023-04-25T06:47:23.405Z,98.78
2023-04-25T06:49:50.392Z,99.85
2023-04-25T06:52:18.927Z,99.67
2023-04-25T06:54:46.165Z,99.06
2023-04-25T06:57:12.935Z,100.00
2023-04-25T06:59:39.613Z,99.78
2023-04-25T07:02:07.095Z,99.66
2023-04-25T07:04:33.908Z,99.29
2023-04-25T07:07:01.949Z,98.93
2023-04-25T07:09:28.430Z,98.38
2023-04-25T07:11:54.960Z,99.18
2023-04-25T07:14:21.466Z,99.64
2023-04-25T07:16:48.392Z,99.09
2023-04-25T07:19:15.077Z,100.00
2023-04-25T07:21:41.533Z,100.00
2023-04-25T07:24:08.061Z,100.00
2023-04-25T07:26:34.532Z,100.00
2023-04-25T07:29:00.996Z,100.00
2023-04-25T07:31:27.874Z,100.00
2023-04-25T07:33:54.385Z,100.00
2023-04-25T07:36:21.971Z,100.00
2023-04-25T07:38:48.624Z,100.00
2023-04-25T07:41:15.293Z,100.00
2023-04-25T07:43:41.818Z,100.00
2023-04-25T07:46:08.345Z,100.00
2023-04-25T07:48:34.863Z,100.00
2023-04-25T07:51:01.314Z,99.89
2023-04-25T07:53:27.749Z,100.00
2023-04-25T07:55:54.281Z,99.68
2023-04-25T07:58:22.907Z,100.00
2023-04-25T08:00:50.030Z,100.00
2023-04-25T08:03:16.741Z,97.49
2023-04-25T08:05:43.952Z,99.04
2023-04-25T08:08:10.651Z,97.99
2023-04-25T08:10:37.237Z,97.35
2023-04-25T08:13:04.008Z,97.89
2023-04-25T08:15:30.784Z,97.53
2023-04-25T08:17:57.466Z,94.34
2023-04-25T08:20:24.085Z,93.92
2023-04-25T08:22:50.690Z,94.58
2023-04-25T08:25:17.160Z,93.24
2023-04-25T08:27:44.381Z,93.53
2023-04-25T08:30:11.231Z,90.59
2023-04-25T08:32:39.830Z,93.95
2023-04-25T08:35:07.187Z,95.13
2023-04-25T08:37:33.721Z,93.83
2023-04-25T08:40:00.223Z,96.47
2023-04-25T08:42:28.392Z,96.28
2023-04-25T08:44:56.229Z,94.98
2023-04-25T08:47:23.810Z,94.70
2023-04-25T08:49:51.834Z,94.03
2023-04-25T08:52:23.245Z,93.53
2023-04-25T08:54:50.549Z,93.52
2023-04-25T08:57:18.266Z,92.75
2023-04-25T08:59:46.933Z,92.71
2023-04-25T09:02:16.850Z,92.98
2023-04-25T09:04:45.156Z,92.67
2023-04-25T09:07:11.740Z,92.62
2023-04-25T09:09:38.288Z,90.31
2023-04-25T09:12:06.197Z,91.33
2023-04-25T09:14:32.966Z,89.86
2023-04-25T09:17:01.910Z,88.27
2023-04-25T09:19:41.090Z,89.15
2023-04-25T09:22:09.047Z,86.67
2023-04-25T09:24:47.153Z,86.99
2023-04-25T09:27:19.248Z,83.58
2023-04-25T09:29:45.770Z,82.46
2023-04-25T09:32:19.012Z,80.15
2023-04-25T09:34:49.370Z,79.35
2023-04-25T09:37:30.572Z,78.11
2023-04-25T09:40:04.124Z,75.73
2023-04-25T09:42:32.842Z,72.66
2023-04-25T09:45:00.058Z,72.92
2023-04-25T09:47:27.817Z,72.09
2023-04-25T09:49:56.023Z,72.25
2023-04-25T09:52:25.782Z,72.56
2023-04-25T09:54:53.394Z,73.90
2023-04-25T09:57:24.860Z,71.51
2023-04-25T09:59:56.026Z,72.10
2023-04-25T10:02:26.148Z,69.72
2023-04-25T10:04:56.218Z,69.08
2023-04-25T10:07:27.208Z,68.96
2023-04-25T10:10:02.766Z,69.83
2023-04-25T10:12:29.613Z,69.06
2023-04-25T10:14:56.314Z,68.84
2023-04-25T10:17:23.584Z,67.64
2023-04-25T10:19:50.165Z,66.95
2023-04-25T10:22:31.570Z,65.95
2023-04-25T10:24:58.595Z,67.26
2023-04-25T10:27:25.188Z,65.37
2023-04-25T10:30:05.481Z,65.00
2023-04-25T10:32:35.948Z,64.49
2023-04-25T10:35:20.145Z,62.67
2023-04-25T10:38:06.394Z,55.75
2023-04-25T10:40:34.451Z,53.01
2023-04-25T10:43:31.859Z,52.07
2023-04-25T10:46:00.417Z,48.79
2023-04-25T10:48:35.829Z,47.51
2023-04-25T10:51:13.110Z,47.63
2023-04-25T10:53:39.554Z,45.75
2023-04-25T10:56:19.760Z,43.64
2023-04-25T10:58:47.706Z,43.59
2023-04-25T11:01:20.955Z,46.24
2023-04-25T11:03:51.498Z,46.22
2023-04-25T11:06:33.443Z,47.05
2023-04-25T11:09:02.506Z,48.03
2023-04-25T11:11:30.400Z,47.95
2023-04-25T11:13:56.890Z,49.23
2023-04-25T11:16:28.444Z,45.52
2023-04-25T11:18:58.396Z,43.52
2023-04-25T11:21:27.446Z,43.07
2023-04-25T11:23:55.669Z,42.47
2023-04-25T11:26:23.295Z,42.67
2023-04-25T11:28:50.461Z,42.27
2023-04-25T11:31:16.979Z,41.52
2023-04-25T11:33:43.664Z,39.90
2023-04-25T11:36:11.088Z,39.44
2023-04-25T11:38:37.558Z,39.96
2023-04-25T11:41:04.124Z,38.03
2023-04-25T11:43:30.789Z,38.04
2023-04-25T11:45:57.585Z,38.13
2023-04-25T11:48:25.892Z,38.40
2023-04-25T11:50:52.719Z,39.33
2023-04-25T11:53:19.619Z,36.57
2023-04-25T11:55:46.339Z,36.07
2023-04-25T11:58:14.801Z,36.83
2023-04-25T12:00:50.411Z,37.29
2023-04-25T12:03:19.429Z,37.55
2023-04-25T12:05:47.426Z,38.79
2023-04-25T12:08:15.662Z,40.42
2023-04-25T12:10:44.262Z,40.45
2023-04-25T12:13:25.683Z,41.61
2023-04-25T12:15:52.947Z,43.83
2023-04-25T12:18:25.232Z,42.44
2023-04-25T12:20:53.588Z,43.89
2023-04-25T12:23:27.632Z,45.24
2023-04-25T12:25:54.201Z,45.08
2023-04-25T12:28:24.743Z,48.91
2023-04-25T12:31:01.773Z,56.47
2023-04-25T12:33:30.621Z,60.84
2023-04-25T12:35:58.606Z,66.83
2023-04-25T12:38:30.012Z,68.81
2023-04-25T12:40:56.975Z,69.84
2023-04-25T12:43:24.257Z,71.25
2023-04-25T12:45:54.913Z,65.20
2023-04-25T12:48:22.276Z,64.67
2023-04-25T12:50:50.402Z,64.08
2023-04-25T12:53:21.470Z,57.31
2023-04-25T12:55:48.535Z,57.57
2023-04-25T12:58:16.190Z,53.79
2023-04-25T13:00:44.170Z,53.32
2023-04-25T13:03:14.723Z,54.84
2023-04-25T13:05:42.104Z,53.83
2023-04-25T13:08:09.017Z,56.74
2023-04-25T13:10:37.044Z,57.24
2023-04-25T13:13:03.710Z,55.92
2023-04-25T13:15:30.363Z,58.48
2023-04-25T13:17:57.204Z,57.45
2023-04-25T13:20:23.945Z,56.47
2023-04-25T13:22:50.880Z,57.05
2023-04-25T13:25:17.750Z,56.49
2023-04-25T13:27:45.726Z,55.59
2023-04-25T13:30:12.500Z,52.62
2023-04-25T13:32:39.491Z,54.33
2023-04-25T13:35:10.458Z,52.58
2023-04-25T13:37:37.771Z,50.92
2023-04-25T13:40:10.857Z,48.61
2023-04-25T13:42:41.219Z,49.24
2023-04-25T13:45:08.621Z,49.99
2023-04-25T13:47:35.542Z,49.93
2023-04-25T13:50:04.105Z,49.42
2023-04-25T13:52:30.717Z,49.94
2023-04-25T13:54:57.208Z,48.88
2023-04-25T13:57:23.677Z,49.43
2023-04-25T13:59:50.179Z,48.82
2023-04-25T14:02:16.769Z,50.79
2023-04-25T14:04:43.705Z,50.05
2023-04-25T14:07:11.882Z,51.43
2023-04-25T14:09:38.356Z,53.46
2023-04-25T14:12:04.999Z,53.60
2023-04-25T14:14:31.484Z,54.48
2023-04-25T14:16:58.333Z,54.28
2023-04-25T14:19:25.631Z,52.71
2023-04-25T14:21:52.229Z,49.64
2023-04-25T14:24:18.739Z,48.35
2023-04-25T14:26:45.610Z,48.38
2023-04-25T14:29:15.256Z,49.55
2023-04-25T14:31:42.315Z,48.57
2023-04-25T14:34:09.134Z,48.81
2023-04-25T14:36:36.817Z,50.42
2023-04-25T14:39:04.032Z,49.94
2023-04-25T14:41:30.476Z,51.68
2023-04-25T14:43:58.087Z,53.03
2023-04-25T14:46:24.825Z,54.11
2023-04-25T14:48:52.169Z,53.45
2023-04-25T14:51:18.679Z,54.67
2023-04-25T14:53:45.561Z,51.35
2023-04-25T14:56:12.156Z,50.92
2023-04-25T14:58:39.874Z,52.12
2023-04-25T15:01:07.773Z,52.72
2023-04-25T15:03:34.500Z,54.52
2023-04-25T15:06:01.226Z,54.47
2023-04-25T15:08:27.670Z,55.80
2023-04-25T15:10:54.383Z,57.55
2023-04-25T15:13:21.289Z,59.80
2023-04-25T15:15:52.091Z,68.66
2023-04-25T15:18:23.695Z,72.68
2023-04-25T15:20:51.846Z,75.96
2023-04-25T15:23:19.509Z,75.20
2023-04-25T15:25:46.762Z,71.97
2023-04-25T15:28:15.937Z,72.93
2023-04-25T15:30:43.221Z,74.05
2023-04-25T15:33:09.677Z,76.37
2023-04-25T15:35:36.352Z,76.96
2023-04-25T15:38:02.866Z,77.22
2023-04-25T15:40:29.343Z,77.73
2023-04-25T15:42:55.892Z,79.71
2023-04-25T15:45:26.041Z,79.87
2023-04-25T15:47:55.831Z,77.90
2023-04-25T15:50:22.890Z,77.61
2023-04-25T15:52:50.911Z,78.46
2023-04-25T15:55:19.043Z,76.16
2023-04-25T15:57:45.514Z,77.38
2023-04-25T16:00:13.287Z,74.11
2023-04-25T16:02:41.364Z,74.29
2023-04-25T16:05:09.287Z,73.75
2023-04-25T16:07:36.271Z,74.88
2023-04-25T16:10:03.086Z,74.82
2023-04-25T16:12:31.092Z,74.27
2023-04-25T16:14:58.230Z,72.88
2023-04-25T16:17:25.562Z,74.35
2023-04-25T16:19:52.217Z,74.18
2023-04-25T16:22:18.731Z,74.94
2023-04-25T16:24:45.364Z,75.75
2023-04-25T16:27:12.313Z,77.83
2023-04-25T16:29:39.412Z,75.48
2023-04-25T16:32:06.138Z,75.98
2023-04-25T16:34:32.902Z,78.39
2023-04-25T16:36:59.909Z,79.46
2023-04-25T16:39:26.427Z,79.59
2023-04-25T16:41:53.374Z,79.17
2023-04-25T16:44:19.899Z,80.28
2023-04-25T16:46:46.415Z,78.05
2023-04-25T16:49:12.991Z,78.22
2023-04-25T16:51:39.561Z,76.66
2023-04-25T16:54:06.441Z,80.01
2023-04-25T16:56:32.880Z,79.17
2023-04-25T16:58:59.384Z,78.03
2023-04-25T17:01:25.913Z,77.60
2023-04-25T17:03:52.600Z,76.83
2023-04-25T17:06:19.261Z,78.47
2023-04-25T17:08:45.860Z,77.21
2023-04-25T17:11:12.522Z,76.34
2023-04-25T17:13:39.084Z,76.93
2023-04-25T17:16:06.356Z,79.34
2023-04-25T17:18:32.903Z,77.74
2023-04-25T17:20:59.528Z,75.11
2023-04-25T17:23:26.271Z,76.04
2023-04-25T17:25:54.291Z,74.47
2023-04-25T17:28:20.846Z,74.18
2023-04-25T17:30:47.475Z,76.63
2023-04-25T17:33:14.050Z,81.61
2023-04-25T17:35:40.699Z,81.61
2023-04-25T17:38:07.237Z,80.91
2023-04-25T17:40:33.685Z,81.72
2023-04-25T17:43:00.189Z,81.81
2023-04-25T17:45:26.841Z,78.92
2023-04-25T17:47:53.517Z,78.50
2023-04-25T17:50:20.697Z,79.27
2023-04-25T17:52:48.354Z,81.03
2023-04-25T17:55:15.194Z,82.79
2023-04-25T17:57:41.698Z,84.36
2023-04-25T18:00:09.345Z,83.67
2023-04-25T18:02:36.699Z,84.13
2023-04-25T18:05:09.894Z,84.44
2023-04-25T18:07:37.106Z,84.74
2023-04-25T18:10:06.848Z,85.56
2023-04-25T18:12:34.119Z,85.66
2023-04-25T18:15:01.818Z,85.83
2023-04-25T18:17:28.448Z,86.60
2023-04-25T18:19:55.439Z,86.12
2023-04-25T18:22:22.298Z,85.75
2023-04-25T18:24:50.012Z,84.26
2023-04-25T18:27:16.654Z,83.31
2023-04-25T18:29:45.329Z,83.78
2023-04-25T18:32:12.266Z,83.24
2023-04-25T18:34:41.497Z,84.01
2023-04-25T18:37:08.050Z,83.67
2023-04-25T18:39:34.567Z,84.87
2023-04-25T18:42:06.694Z,86.76
2023-04-25T18:44:36.556Z,86.87
2023-04-25T18:47:03.105Z,87.19
2023-04-25T18:49:29.605Z,87.28
2023-04-25T18:51:57.472Z,91.25
2023-04-25T18:54:23.979Z,93.72
2023-04-25T18:56:50.509Z,91.64
2023-04-25T18:59:18.050Z,89.89
2023-04-25T19:01:44.899Z,88.74
2023-04-25T19:04:11.579Z,90.68
2023-04-25T19:06:38.237Z,88.60
2023-04-25T19:09:04.756Z,91.45
2023-04-25T19:11:31.286Z,94.87
2023-04-25T19:13:57.837Z,93.14
2023-04-25T19:16:26.400Z,92.85
2023-04-25T19:18:55.295Z,93.41
2023-04-25T19:21:22.644Z,94.20
2023-04-25T19:23:49.230Z,95.40
2023-04-25T19:26:15.702Z,95.88
2023-04-25T19:28:44.755Z,97.38
2023-04-25T19:31:12.991Z,98.47
2023-04-25T19:33:39.592Z,99.03
2023-04-25T19:36:06.139Z,99.76
2023-04-25T19:38:32.674Z,98.80
2023-04-25T19:40:59.241Z,96.81
2023-04-25T19:43:26.137Z,95.25
2023-04-25T19:45:53.964Z,94.08
2023-04-25T19:48:21.128Z,93.81
2023-04-25T19:50:47.639Z,96.63
2023-04-25T19:53:14.168Z,97.51
2023-04-25T19:55:41.234Z,96.37
2023-04-25T19:58:08.082Z,96.55
2023-04-25T20:00:34.596Z,97.15
2023-04-25T20:03:02.152Z,98.47
2023-04-25T20:05:28.917Z,96.63
2023-04-25T20:07:55.422Z,96.27
2023-04-25T20:10:22.285Z,98.17
2023-04-25T20:12:49.417Z,96.68
2023-04-25T20:15:17.878Z,98.02
2023-04-25T20:17:44.436Z,97.13
2023-04-25T20:20:11.817Z,96.95
2023-04-25T20:22:40.420Z,97.16
2023-04-25T20:25:09.167Z,96.06
2023-04-25T20:27:38.019Z,95.79
2023-04-25T20:30:08.637Z,96.30
2023-04-25T20:32:36.022Z,95.45
2023-04-25T20:35:03.953Z,96.74
2023-04-25T20:37:33.623Z,95.55
2023-04-25T20:40:00.989Z,96.68
2023-04-25T20:42:27.608Z,96.96
2023-04-25T20:44:54.691Z,98.73
2023-04-25T20:47:21.896Z,97.83
2023-04-25T20:49:48.529Z,98.82
2023-04-25T20:52:16.087Z,98.22
2023-04-25T20:54:42.836Z,98.02
2023-04-25T20:57:09.483Z,98.01
2023-04-25T20:59:36.326Z,98.37
2023-04-25T21:02:02.927Z,99.80
2023-04-25T21:04:29.493Z,98.40
2023-04-25T21:06:55.990Z,96.17
2023-04-25T21:09:22.429Z,97.03
2023-04-25T21:11:48.914Z,99.87
2023-04-25T21:14:16.489Z,98.88
2023-04-25T21:16:43.046Z,100.00
2023-04-25T21:19:09.639Z,100.00
2023-04-25T21:21:36.181Z,99.95
2023-04-25T21:24:02.932Z,100.00
2023-04-25T21:26:29.431Z,100.00
2023-04-25T21:28:55.919Z,100.00
2023-04-25T21:31:22.547Z,100.00
2023-04-25T21:33:49.074Z,100.00
2023-04-25T21:36:15.904Z,100.00
2023-04-25T21:38:42.424Z,100.00
2023-04-25T21:41:08.983Z,100.00
2023-04-25T21:43:36.719Z,99.90
2023-04-25T21:48:32.612Z,100.00
2023-04-25T21:50:59.245Z,100.00
2023-04-25T21:53:26.792Z,100.00
2023-04-25T21:55:53.412Z,100.00
2023-04-25T21:58:19.870Z,100.00
2023-04-25T22:00:46.358Z,100.00
2023-04-25T22:03:16.097Z,100.00
2023-04-25T22:05:42.834Z,100.00
2023-04-25T22:08:09.661Z,100.00
2023-04-25T22:10:36.220Z,100.00
2023-04-25T22:13:02.739Z,100.00
2023-04-25T22:15:29.569Z,100.00
2023-04-25T22:17:56.116Z,100.00
2023-04-25T22:20:26.182Z,100.00
2023-04-25T22:22:54.505Z,100.00
2023-04-25T22:25:21.298Z,100.00
2023-04-25T22:27:48.240Z,100.00
2023-04-25T22:30:15.020Z,100.00
2023-04-25T22:32:42.012Z,100.00
2023-04-25T22:35:09.295Z,100.00
2023-04-25T22:37:36.178Z,100.00
2023-04-25T22:40:07.132Z,100.00
2023-04-25T22:42:40.278Z,100.00
2023-04-25T22:45:08.278Z,100.00
2023-04-25T22:47:38.733Z,100.00
2023-04-25T22:50:13.308Z,100.00
2023-04-25T22:52:40.563Z,100.00
2023-04-25T22:55:07.389Z,100.00
2023-04-25T22:57:36.901Z,100.00
2023-04-25T23:00:09.397Z,100.00
2023-04-25T23:02:36.096Z,100.00
2023-04-25T23:05:02.650Z,100.00
2023-04-25T23:07:29.190Z,100.00
2023-04-25T23:09:55.723Z,100.00
2023-04-25T23:12:22.770Z,100.00
2023-04-25T23:14:51.151Z,100.00
2023-04-25T23:17:17.661Z,100.00
2023-04-25T23:19:45.206Z,100.00
2023-04-25T23:22:11.772Z,100.00
2023-04-25T23:24:41.620Z,100.00
2023-04-25T23:27:08.171Z,100.00
2023-04-25T23:29:34.817Z,100.00
2023-04-25T23:32:04.489Z,100.00
2023-04-25T23:34:32.053Z,100.00
2023-04-25T23:37:01.246Z,100.00
2023-04-25T23:39:28.240Z,100.00
2023-04-25T23:41:55.034Z,100.00
2023-04-25T23:44:22.189Z,100.00
2023-04-25T23:46:49.611Z,100.00
2023-04-25T23:49:16.117Z,100.00
2023-04-25T23:51:43.077Z,100.00
2023-04-25T23:54:09.617Z,100.00
2023-04-25T23:56:36.202Z,100.00
2023-04-25T23:59:03.812Z,100.00
